Time,TemperatureF,DewpointF,PressureIn,WindDirection,WindDirectionDegrees,WindSpeedMPH,WindSpeedGustMPH,Humidity,HourlyPrecipIn,Conditions,Clouds,dailyrainin,SoftwareType,DateUTC
2013-07-22 00:03:00,72.3,57.2,29.70,SE,128,0.0,2.9,59,0.00,,,0.00,meteobridge,2013-07-22 06:03:00,
2013-07-22 00:08:00,72.3,57.7,29.70,SE,132,0.0,2.0,60,0.00,,,0.00,meteobridge,2013-07-22 06:08:00,
2013-07-22 00:13:00,72.3,57.7,29.70,ESE,110,0.0,2.0,60,0.00,,,0.00,meteobridge,2013-07-22 06:13:00,
2013-07-22 00:19:00,72.1,57.6,29.70,SE,146,0.0,2.9,60,0.00,,,0.00,meteobridge,2013-07-22 06:19:00,
2013-07-22 00:24:00,72.0,57.4,29.70,East,83,2.0,4.9,60,0.00,,,0.00,meteobridge,2013-07-22 06:24:00,
2013-07-22 00:29:00,72.0,57.4,29.70,SE,129,2.9,4.9,60,0.00,,,0.00,meteobridge,2013-07-22 06:29:00,
2013-07-22 00:34:00,72.0,57.7,29.70,SE,126,0.9,2.0,61,0.00,,,0.00,meteobridge,2013-07-22 06:34:00,
2013-07-22 00:39:00,71.8,57.2,29.70,ESE,117,2.0,2.9,60,0.00,,,0.00,meteobridge,2013-07-22 06:39:00,
2013-07-22 00:44:00,71.6,57.0,29.70,SE,140,0.0,0.9,60,0.00,,,0.00,meteobridge,2013-07-22 06:44:00,
2013-07-22 00:49:00,71.4,56.8,29.70,SE,126,0.9,0.9,60,0.00,,,0.00,meteobridge,2013-07-22 06:49:00,
2013-07-22 00:54:00,71.4,56.8,29.69,ESE,120,0.0,2.0,60,0.00,,,0.00,meteobridge,2013-07-22 06:54:00,
2013-07-22 00:59:00,71.2,56.7,29.69,ESE,120,0.0,0.9,60,0.00,,,0.00,meteobridge,2013-07-22 06:59:00,
2013-07-22 01:05:00,71.2,56.7,29.69,ESE,120,0.0,0.9,60,0.00,,,0.00,meteobridge,2013-07-22 07:05:00,
2013-07-22 01:10:00,71.2,57.0,29.69,ESE,120,0.0,0.0,61,0.00,,,0.00,meteobridge,2013-07-22 07:10:00,
2013-07-22 01:15:00,71.1,57.7,29.69,SE,126,0.9,2.9,63,0.00,,,0.00,meteobridge,2013-07-22 07:15:00,
2013-07-22 01:20:00,71.1,56.8,29.69,ESE,108,0.0,0.9,61,0.00,,,0.00,meteobridge,2013-07-22 07:20:00,
2013-07-22 01:25:00,71.1,56.8,29.69,ESE,108,0.0,2.0,61,0.00,,,0.00,meteobridge,2013-07-22 07:25:00,
2013-07-22 01:30:00,71.1,56.8,29.69,ESE,108,0.0,0.9,61,0.00,,,0.00,meteobridge,2013-07-22 07:30:00,
2013-07-22 01:35:00,71.1,56.8,29.68,ESE,108,0.0,0.0,61,0.00,,,0.00,meteobridge,2013-07-22 07:35:00,
2013-07-22 01:41:00,70.9,57.2,29.68,ESE,108,0.0,0.0,62,0.00,,,0.00,meteobridge,2013-07-22 07:41:00,
2013-07-22 01:46:00,70.5,57.4,29.68,ESE,108,0.0,0.9,63,0.00,,,0.00,meteobridge,2013-07-22 07:46:00,
2013-07-22 01:51:00,70.3,57.2,29.67,ESE,108,0.0,0.0,63,0.00,,,0.00,meteobridge,2013-07-22 07:51:00,
2013-07-22 01:56:00,70.2,57.0,29.67,ESE,108,0.0,0.0,63,0.00,,,0.00,meteobridge,2013-07-22 07:56:00,
2013-07-22 02:01:00,70.0,57.2,29.67,ESE,108,0.0,0.0,64,0.00,,,0.00,meteobridge,2013-07-22 08:01:00,
2013-07-22 02:07:00,70.2,57.4,29.67,ESE,108,0.0,0.0,64,0.00,,,0.00,meteobridge,2013-07-22 08:07:00,
2013-07-22 02:12:00,70.0,57.2,29.67,ESE,108,0.9,0.9,64,0.00,,,0.00,meteobridge,2013-07-22 08:12:00,
2013-07-22 02:17:00,70.0,57.2,29.66,ESE,108,0.0,0.0,64,0.00,,,0.00,meteobridge,2013-07-22 08:17:00,
2013-07-22 02:22:00,69.4,57.6,29.66,ESE,108,0.0,0.0,66,0.00,,,0.00,meteobridge,2013-07-22 08:22:00,
2013-07-22 02:27:00,69.3,57.0,29.67,ESE,108,0.0,0.0,65,0.00,,,0.00,meteobridge,2013-07-22 08:27:00,
2013-07-22 02:33:00,68.9,58.3,29.67,ESE,108,0.0,0.0,69,0.00,,,0.00,meteobridge,2013-07-22 08:33:00,
2013-07-22 02:38:00,68.5,58.3,29.67,ESE,108,0.0,0.0,70,0.00,,,0.00,meteobridge,2013-07-22 08:38:00,
2013-07-22 02:43:00,68.4,58.3,29.67,ESE,108,0.0,0.0,70,0.00,,,0.00,meteobridge,2013-07-22 08:43:00,
2013-07-22 02:48:00,68.4,57.7,29.67,ESE,108,0.0,0.0,69,0.00,,,0.00,meteobridge,2013-07-22 08:48:00,
2013-07-22 02:53:00,68.4,57.4,29.67,ESE,108,0.0,0.0,68,0.00,,,0.00,meteobridge,2013-07-22 08:53:00,
2013-07-22 02:59:00,68.2,57.6,29.67,ESE,108,0.0,0.0,69,0.00,,,0.00,meteobridge,2013-07-22 08:59:00,
2013-07-22 03:04:00,67.8,57.7,29.67,ESE,108,0.0,0.0,70,0.00,,,0.00,meteobridge,2013-07-22 09:04:00,
2013-07-22 03:09:00,67.5,57.7,29.67,ESE,108,0.0,0.0,71,0.00,,,0.00,meteobridge,2013-07-22 09:09:00,
2013-07-22 03:14:00,67.3,57.9,29.67,ESE,108,0.0,0.0,72,0.00,,,0.00,meteobridge,2013-07-22 09:14:00,
2013-07-22 03:19:00,67.1,57.7,29.67,ESE,108,0.0,0.0,72,0.00,,,0.00,meteobridge,2013-07-22 09:19:00,
2013-07-22 03:24:00,67.3,57.6,29.67,ESE,108,0.0,0.0,71,0.00,,,0.00,meteobridge,2013-07-22 09:24:00,
2013-07-22 03:30:00,67.3,57.9,29.67,ESE,108,0.0,0.0,72,0.00,,,0.00,meteobridge,2013-07-22 09:30:00,
2013-07-22 03:35:00,67.1,57.4,29.67,ESE,108,0.0,0.0,71,0.00,,,0.00,meteobridge,2013-07-22 09:35:00,
2013-07-22 03:40:00,66.9,57.6,29.67,ESE,108,0.0,0.0,72,0.00,,,0.00,meteobridge,2013-07-22 09:40:00,
2013-07-22 03:45:00,67.5,57.7,29.67,ESE,108,0.0,0.0,71,0.00,,,0.00,meteobridge,2013-07-22 09:45:00,
2013-07-22 03:50:00,67.5,57.7,29.67,ESE,108,0.0,0.0,71,0.00,,,0.00,meteobridge,2013-07-22 09:50:00,
2013-07-22 03:55:00,67.5,57.7,29.67,ESE,108,0.0,0.0,71,0.00,,,0.00,meteobridge,2013-07-22 09:55:00,
2013-07-22 04:00:00,66.9,57.6,29.67,ESE,108,0.0,0.0,72,0.00,,,0.00,meteobridge,2013-07-22 10:00:00,
2013-07-22 04:06:00,66.6,57.6,29.67,ESE,108,0.0,0.0,73,0.00,,,0.00,meteobridge,2013-07-22 10:06:00,
2013-07-22 04:11:00,66.6,57.6,29.67,ESE,108,0.0,0.0,73,0.00,,,0.00,meteobridge,2013-07-22 10:11:00,
2013-07-22 04:16:00,66.0,57.9,29.67,ESE,108,0.0,0.0,75,0.00,,,0.00,meteobridge,2013-07-22 10:16:00,
2013-07-22 04:21:00,65.8,57.7,29.67,ESE,108,0.0,0.0,75,0.00,,,0.00,meteobridge,2013-07-22 10:21:00,
2013-07-22 04:27:00,65.8,58.1,29.67,ESE,108,0.0,0.0,76,0.00,,,0.00,meteobridge,2013-07-22 10:27:00,
2013-07-22 04:32:00,66.0,57.9,29.67,ESE,108,0.0,0.0,75,0.00,,,0.00,meteobridge,2013-07-22 10:32:00,
2013-07-22 04:37:00,65.8,57.7,29.67,ESE,108,0.0,0.0,75,0.00,,,0.00,meteobridge,2013-07-22 10:37:00,
2013-07-22 04:42:00,65.7,57.9,29.67,ESE,108,0.0,0.0,76,0.00,,,0.00,meteobridge,2013-07-22 10:42:00,
2013-07-22 04:47:00,65.7,57.9,29.67,ESE,108,0.0,0.0,76,0.00,,,0.00,meteobridge,2013-07-22 10:47:00,
2013-07-22 04:52:00,65.7,57.9,29.67,ESE,108,0.0,0.0,76,0.00,,,0.00,meteobridge,2013-07-22 10:52:00,
2013-07-22 04:57:00,65.5,58.1,29.67,ESE,108,0.0,0.0,77,0.00,,,0.00,meteobridge,2013-07-22 10:57:00,
2013-07-22 05:03:00,65.8,58.1,29.67,ESE,108,0.0,0.0,76,0.00,,,0.00,meteobridge,2013-07-22 11:03:00,
2013-07-22 05:08:00,66.0,57.9,29.67,ESE,108,0.0,0.0,75,0.00,,,0.00,meteobridge,2013-07-22 11:08:00,
2013-07-22 05:13:00,66.4,57.9,29.68,ESE,108,0.0,0.0,74,0.00,,,0.00,meteobridge,2013-07-22 11:13:00,
2013-07-22 05:18:00,66.6,57.6,29.68,ESE,108,0.0,0.0,73,0.00,,,0.00,meteobridge,2013-07-22 11:18:00,
2013-07-22 05:23:00,66.9,57.2,29.67,East,86,0.0,0.9,71,0.00,,,0.00,meteobridge,2013-07-22 11:23:00,
2013-07-22 05:28:00,67.5,57.4,29.68,East,86,0.0,0.0,70,0.00,,,0.00,meteobridge,2013-07-22 11:28:00,
2013-07-22 05:34:00,67.5,57.4,29.68,East,86,0.0,0.0,70,0.00,,,0.00,meteobridge,2013-07-22 11:34:00,
2013-07-22 05:39:00,67.5,57.4,29.68,East,86,0.0,0.0,70,0.00,,,0.00,meteobridge,2013-07-22 11:39:00,
2013-07-22 05:44:00,67.8,56.8,29.68,East,80,0.9,0.9,68,0.00,,,0.00,meteobridge,2013-07-22 11:44:00,
2013-07-22 05:49:00,68.0,57.0,29.68,East,80,0.0,0.0,68,0.00,,,0.00,meteobridge,2013-07-22 11:49:00,
2013-07-22 05:54:00,67.8,56.8,29.68,East,80,0.0,0.0,68,0.00,,,0.00,meteobridge,2013-07-22 11:54:00,
2013-07-22 05:59:00,67.8,56.8,29.68,East,80,0.0,0.0,68,0.00,,,0.00,meteobridge,2013-07-22 11:59:00,
2013-07-22 06:05:00,67.5,56.5,29.69,East,80,0.0,0.0,68,0.00,,,0.00,meteobridge,2013-07-22 12:05:00,
2013-07-22 06:10:00,67.6,56.7,29.68,NE,36,0.0,2.0,68,0.00,,,0.00,meteobridge,2013-07-22 12:10:00,
2013-07-22 06:15:00,68.2,56.3,29.68,NNE,15,0.0,0.9,66,0.00,,,0.00,meteobridge,2013-07-22 12:15:00,
2013-07-22 06:20:00,68.4,56.5,29.69,NNE,14,0.0,0.0,66,0.00,,,0.00,meteobridge,2013-07-22 12:20:00,
2013-07-22 06:25:00,68.2,56.3,29.69,NNE,13,0.0,0.0,66,0.00,,,0.00,meteobridge,2013-07-22 12:25:00,
2013-07-22 06:30:00,68.2,56.3,29.69,NNE,13,2.0,2.0,66,0.00,,,0.00,meteobridge,2013-07-22 12:30:00,
2013-07-22 06:35:00,68.4,56.1,29.69,NNE,13,0.0,0.9,65,0.00,,,0.00,meteobridge,2013-07-22 12:35:00,
2013-07-22 06:40:00,68.4,56.1,29.69,NNE,13,0.0,0.0,65,0.00,,,0.00,meteobridge,2013-07-22 12:40:00,
2013-07-22 06:45:00,68.5,56.3,29.69,NNE,13,0.0,0.9,65,0.00,,,0.00,meteobridge,2013-07-22 12:45:00,
2013-07-22 06:50:00,68.7,56.5,29.69,NNE,13,0.9,2.0,65,0.00,,,0.00,meteobridge,2013-07-22 12:50:00,
2013-07-22 06:55:00,68.9,56.7,29.70,NNE,13,0.9,0.9,65,0.00,,,0.00,meteobridge,2013-07-22 12:55:00,
2013-07-22 07:00:00,69.1,56.5,29.70,NNE,13,0.9,0.9,64,0.00,,,0.00,meteobridge,2013-07-22 13:00:00,
2013-07-22 07:06:00,69.4,56.7,29.70,NNE,13,0.0,2.9,64,0.00,,,0.00,meteobridge,2013-07-22 13:06:00,
2013-07-22 07:11:00,69.4,56.7,29.70,NNE,13,0.0,0.9,64,0.00,,,0.00,meteobridge,2013-07-22 13:11:00,
2013-07-22 07:16:00,69.4,56.7,29.70,NNE,13,0.9,0.9,64,0.00,,,0.00,meteobridge,2013-07-22 13:16:00,
2013-07-22 07:21:00,69.4,56.7,29.70,NNE,13,0.0,0.0,64,0.00,,,0.00,meteobridge,2013-07-22 13:21:00,
2013-07-22 07:26:00,69.8,56.7,29.70,NNE,13,0.0,0.0,63,0.00,,,0.00,meteobridge,2013-07-22 13:26:00,
2013-07-22 07:31:00,70.2,56.5,29.71,NNE,13,0.0,0.9,62,0.00,,,0.00,meteobridge,2013-07-22 13:31:00,
2013-07-22 07:36:00,70.5,56.5,29.71,NNE,13,0.9,0.9,61,0.00,,,0.00,meteobridge,2013-07-22 13:36:00,
2013-07-22 07:41:00,70.5,56.5,29.71,NNE,13,0.0,0.9,61,0.00,,,0.00,meteobridge,2013-07-22 13:41:00,
2013-07-22 07:46:00,70.5,56.5,29.71,North,11,0.0,2.9,61,0.00,,,0.00,meteobridge,2013-07-22 13:46:00,
2013-07-22 07:51:00,70.5,55.9,29.71,North,9,0.0,0.9,60,0.00,,,0.00,meteobridge,2013-07-22 13:51:00,
2013-07-22 07:56:00,70.9,55.8,29.71,North,9,0.0,2.0,59,0.00,,,0.00,meteobridge,2013-07-22 13:56:00,
2013-07-22 08:01:00,71.1,55.9,29.71,North,9,0.0,0.9,59,0.00,,,0.00,meteobridge,2013-07-22 14:01:00,
2013-07-22 08:06:00,71.8,56.7,29.71,North,9,2.0,2.0,59,0.00,,,0.00,meteobridge,2013-07-22 14:06:00,
2013-07-22 08:12:00,72.3,56.3,29.72,North,5,0.0,2.0,57,0.00,,,0.00,meteobridge,2013-07-22 14:12:00,
2013-07-22 08:17:00,72.3,55.8,29.72,North,5,0.9,0.9,56,0.00,,,0.00,meteobridge,2013-07-22 14:17:00,
2013-07-22 08:22:00,73.2,56.1,29.72,North,5,0.0,0.0,55,0.00,,,0.00,meteobridge,2013-07-22 14:22:00,
2013-07-22 08:27:00,73.8,57.0,29.72,North,5,0.0,0.9,56,0.00,,,0.00,meteobridge,2013-07-22 14:27:00,
2013-07-22 08:32:00,74.5,56.3,29.72,WNW,295,0.0,2.9,53,0.00,,,0.00,meteobridge,2013-07-22 14:32:00,
2013-07-22 08:37:00,74.7,55.9,29.72,NNW,341,0.0,2.0,52,0.00,,,0.00,meteobridge,2013-07-22 14:37:00,
2013-07-22 08:42:00,74.7,56.5,29.72,NNW,340,0.0,0.9,53,0.00,,,0.00,meteobridge,2013-07-22 14:42:00,
2013-07-22 08:47:00,74.8,56.1,29.72,NNW,340,0.0,0.9,52,0.00,,,0.00,meteobridge,2013-07-22 14:47:00,
2013-07-22 08:52:00,74.8,55.6,29.72,North,355,0.9,0.9,51,0.00,,,0.00,meteobridge,2013-07-22 14:52:00,
2013-07-22 08:58:00,74.7,55.4,29.72,NNE,19,0.9,2.9,51,0.00,,,0.00,meteobridge,2013-07-22 14:58:00,
2013-07-22 09:03:00,74.7,55.4,29.72,NNE,19,0.9,0.9,51,0.00,,,0.00,meteobridge,2013-07-22 15:03:00,
2013-07-22 09:08:00,74.3,55.0,29.72,NNE,19,0.0,0.0,51,0.00,,,0.00,meteobridge,2013-07-22 15:08:00,
2013-07-22 09:13:00,74.7,55.4,29.72,NNE,19,0.9,0.9,51,0.00,,,0.00,meteobridge,2013-07-22 15:13:00,
2013-07-22 09:18:00,75.9,55.9,29.71,NNE,19,0.0,2.0,50,0.00,,,0.00,meteobridge,2013-07-22 15:18:00,
2013-07-22 09:23:00,74.8,55.6,29.72,NNE,19,0.9,0.9,51,0.00,,,0.00,meteobridge,2013-07-22 15:23:00,
2013-07-22 09:28:00,74.7,55.9,29.72,NNE,19,0.0,0.0,52,0.00,,,0.00,meteobridge,2013-07-22 15:28:00,
2013-07-22 09:33:00,75.0,55.6,29.71,NNE,19,0.0,0.9,51,0.00,,,0.00,meteobridge,2013-07-22 15:33:00,
2013-07-22 09:38:00,75.9,55.4,29.71,NW,318,0.0,2.9,49,0.00,,,0.00,meteobridge,2013-07-22 15:38:00,
2013-07-22 09:43:00,76.3,55.8,29.71,NW,311,0.0,2.0,49,0.00,,,0.00,meteobridge,2013-07-22 15:43:00,
2013-07-22 09:48:00,76.1,55.6,29.71,SSE,163,0.0,2.0,49,0.00,,,0.00,meteobridge,2013-07-22 15:48:00,
2013-07-22 09:54:00,76.3,56.3,29.71,West,269,2.0,2.0,50,0.00,,,0.00,meteobridge,2013-07-22 15:54:00,
2013-07-22 09:59:00,76.1,55.6,29.71,WSW,258,0.0,0.9,49,0.00,,,0.00,meteobridge,2013-07-22 15:59:00,
2013-07-22 10:04:00,76.8,56.3,29.71,NNW,333,0.9,2.0,49,0.00,,,0.00,meteobridge,2013-07-22 16:04:00,
2013-07-22 10:09:00,76.8,55.6,29.71,NNW,333,0.9,0.9,48,0.00,,,0.00,meteobridge,2013-07-22 16:09:00,
2013-07-22 10:14:00,77.0,55.8,29.71,SW,216,0.0,0.0,48,0.00,,,0.00,meteobridge,2013-07-22 16:14:00,
2013-07-22 10:19:00,78.6,56.1,29.71,East,98,0.0,2.0,46,0.00,,,0.00,meteobridge,2013-07-22 16:19:00,
2013-07-22 10:24:00,79.5,56.3,29.70,East,98,0.9,0.9,45,0.00,,,0.00,meteobridge,2013-07-22 16:24:00,
2013-07-22 10:29:00,79.9,55.9,29.70,North,11,0.0,2.9,44,0.00,,,0.00,meteobridge,2013-07-22 16:29:00,
2013-07-22 10:34:00,79.9,55.9,29.70,SW,218,2.0,2.9,44,0.00,,,0.00,meteobridge,2013-07-22 16:34:00,
2013-07-22 10:39:00,79.3,54.9,29.70,SW,232,0.9,0.9,43,0.00,,,0.00,meteobridge,2013-07-22 16:39:00,
2013-07-22 10:44:00,79.3,55.6,29.70,East,96,2.0,2.9,44,0.00,,,0.00,meteobridge,2013-07-22 16:44:00,
2013-07-22 10:49:00,79.9,55.9,29.70,East,96,0.9,0.9,44,0.00,,,0.00,meteobridge,2013-07-22 16:49:00,
2013-07-22 10:54:00,79.9,54.7,29.70,SE,137,0.9,2.9,42,0.00,,,0.00,meteobridge,2013-07-22 16:54:00,
2013-07-22 10:59:00,80.1,54.3,29.70,South,180,4.0,4.9,41,0.00,,,0.00,meteobridge,2013-07-22 16:59:00,
2013-07-22 11:04:00,79.5,54.5,29.70,SW,229,2.0,4.0,42,0.00,,,0.00,meteobridge,2013-07-22 17:04:00,
2013-07-22 11:09:00,80.2,53.8,29.70,SSW,197,2.9,4.9,40,0.00,,,0.00,meteobridge,2013-07-22 17:09:00,
2013-07-22 11:15:00,80.2,54.3,29.70,SSE,167,0.9,2.9,41,0.00,,,0.00,meteobridge,2013-07-22 17:15:00,
2013-07-22 11:20:00,80.6,53.4,29.70,South,182,2.0,4.9,39,0.00,,,0.00,meteobridge,2013-07-22 17:20:00,
2013-07-22 11:25:00,81.0,52.9,29.70,SSW,204,0.9,2.9,38,0.00,,,0.00,meteobridge,2013-07-22 17:25:00,
2013-07-22 11:30:00,81.0,53.6,29.70,South,171,0.0,2.9,39,0.00,,,0.00,meteobridge,2013-07-22 17:30:00,
2013-07-22 11:35:00,81.1,53.8,29.70,SSE,168,0.0,2.9,39,0.00,,,0.00,meteobridge,2013-07-22 17:35:00,
2013-07-22 11:40:00,81.9,53.1,29.69,SSE,148,2.0,4.0,37,0.00,,,0.00,meteobridge,2013-07-22 17:40:00,
2013-07-22 11:45:00,81.7,53.6,29.69,SSW,206,0.9,2.9,38,0.00,,,0.00,meteobridge,2013-07-22 17:45:00,
2013-07-22 11:50:00,81.9,53.1,29.69,South,184,2.9,2.9,37,0.00,,,0.00,meteobridge,2013-07-22 17:50:00,
2013-07-22 11:55:00,82.0,52.5,29.69,SSE,155,0.0,0.9,36,0.00,,,0.00,meteobridge,2013-07-22 17:55:00,
2013-07-22 12:00:00,82.9,54.0,29.69,South,182,0.0,0.9,37,0.00,,,0.00,meteobridge,2013-07-22 18:00:00,
2013-07-22 12:06:00,83.8,54.0,29.69,ESE,120,0.9,4.0,36,0.00,,,0.00,meteobridge,2013-07-22 18:06:00,
2013-07-22 12:11:00,84.0,53.4,29.69,SE,143,4.9,6.9,35,0.00,,,0.00,meteobridge,2013-07-22 18:11:00,
2013-07-22 12:16:00,83.7,53.1,29.69,SSE,158,0.9,6.9,35,0.00,,,0.00,meteobridge,2013-07-22 18:16:00,
2013-07-22 12:21:00,84.7,53.2,29.68,SE,129,0.9,8.1,34,0.00,,,0.00,meteobridge,2013-07-22 18:21:00,
2013-07-22 12:26:00,84.4,52.9,29.68,SSE,148,2.9,2.9,34,0.00,,,0.00,meteobridge,2013-07-22 18:26:00,
2013-07-22 12:31:00,84.9,53.4,29.68,West,267,4.9,6.9,34,0.00,,,0.00,meteobridge,2013-07-22 18:31:00,
2013-07-22 12:36:00,85.1,52.7,29.68,WNW,288,0.9,4.0,33,0.00,,,0.00,meteobridge,2013-07-22 18:36:00,
2013-07-22 12:41:00,85.1,52.0,29.68,SW,224,2.9,4.9,32,0.00,,,0.00,meteobridge,2013-07-22 18:41:00,
2013-07-22 12:46:00,84.9,52.5,29.68,SW,227,0.9,2.0,33,0.00,,,0.00,meteobridge,2013-07-22 18:46:00,
2013-07-22 12:51:00,86.5,53.2,29.67,SW,234,2.9,6.0,32,0.00,,,0.00,meteobridge,2013-07-22 18:51:00,
2013-07-22 12:56:00,87.4,53.1,29.67,WSW,239,4.0,8.9,31,0.00,,,0.00,meteobridge,2013-07-22 18:56:00,
2013-07-22 13:01:00,87.4,53.1,29.67,SSW,200,2.9,8.1,31,0.00,,,0.00,meteobridge,2013-07-22 19:01:00,
2013-07-22 13:06:00,86.9,52.7,29.67,SSE,164,0.9,4.0,31,0.00,,,0.00,meteobridge,2013-07-22 19:06:00,
2013-07-22 13:12:00,87.1,53.6,29.67,SSW,202,6.0,6.0,32,0.00,,,0.00,meteobridge,2013-07-22 19:12:00,
2013-07-22 13:17:00,88.0,53.6,29.67,South,175,0.0,2.9,31,0.00,,,0.00,meteobridge,2013-07-22 19:17:00,
2013-07-22 13:22:00,87.8,52.5,29.67,South,190,0.0,6.0,30,0.00,,,0.00,meteobridge,2013-07-22 19:22:00,
2013-07-22 13:27:00,87.3,52.9,29.66,South,187,2.0,4.9,31,0.00,,,0.00,meteobridge,2013-07-22 19:27:00,
2013-07-22 13:32:00,86.4,51.3,29.66,SW,234,2.0,2.9,30,0.00,,,0.00,meteobridge,2013-07-22 19:32:00,
2013-07-22 13:37:00,86.5,51.4,29.66,South,184,4.9,4.9,30,0.00,,,0.00,meteobridge,2013-07-22 19:37:00,
2013-07-22 13:42:00,86.7,50.7,29.65,SE,134,0.9,4.0,29,0.00,,,0.00,meteobridge,2013-07-22 19:42:00,
2013-07-22 13:47:00,88.2,52.0,29.65,SE,143,4.0,4.0,29,0.00,,,0.00,meteobridge,2013-07-22 19:47:00,
2013-07-22 13:52:00,88.2,50.9,29.65,SE,135,0.0,2.9,28,0.00,,,0.00,meteobridge,2013-07-22 19:52:00,
2013-07-22 13:57:00,88.5,50.4,29.65,West,277,0.9,6.0,27,0.00,,,0.00,meteobridge,2013-07-22 19:57:00,
2013-07-22 14:02:00,88.9,50.5,29.65,WSW,254,0.9,2.9,27,0.00,,,0.00,meteobridge,2013-07-22 20:02:00,
2013-07-22 14:07:00,88.3,52.0,29.64,NW,305,0.0,2.9,29,0.00,,,0.00,meteobridge,2013-07-22 20:07:00,
2013-07-22 14:12:00,88.0,50.7,29.64,SSW,213,0.0,2.9,28,0.00,,,0.00,meteobridge,2013-07-22 20:12:00,
2013-07-22 14:16:00,88.3,51.1,29.64,South,174,2.0,6.9,28,0.00,,,0.00,meteobridge,2013-07-22 20:16:00,
2013-07-22 14:17:00,88.3,51.1,29.64,South,174,0.9,6.0,28,0.00,,,0.00,meteobridge,2013-07-22 20:17:00,
2013-07-22 14:18:00,88.5,51.3,29.64,SW,224,2.0,6.0,28,0.00,,,0.00,meteobridge,2013-07-22 20:18:00,
2013-07-22 14:23:00,89.6,50.2,29.64,South,169,2.9,4.9,26,0.00,,,0.00,meteobridge,2013-07-22 20:23:00,
2013-07-22 14:28:00,89.8,51.3,29.63,SW,218,0.9,2.9,27,0.00,,,0.00,meteobridge,2013-07-22 20:28:00,
2013-07-22 14:33:00,91.0,50.4,29.63,South,178,2.9,8.1,25,0.00,,,0.00,meteobridge,2013-07-22 20:33:00,
2013-07-22 14:38:00,91.0,50.4,29.63,SE,134,2.9,4.0,25,0.00,,,0.00,meteobridge,2013-07-22 20:38:00,
2013-07-22 14:43:00,90.7,50.0,29.62,SW,221,2.0,4.0,25,0.00,,,0.00,meteobridge,2013-07-22 20:43:00,
2013-07-22 14:48:00,91.0,49.3,29.62,West,267,4.0,6.0,24,0.00,,,0.00,meteobridge,2013-07-22 20:48:00,
2013-07-22 14:53:00,91.8,52.0,29.62,SW,218,2.9,4.9,26,0.00,,,0.00,meteobridge,2013-07-22 20:53:00,
2013-07-22 14:58:00,92.7,49.5,29.62,West,265,2.9,4.0,23,0.00,,,0.00,meteobridge,2013-07-22 20:58:00,
2013-07-22 15:03:00,92.5,49.3,29.62,SW,228,4.9,8.1,23,0.00,,,0.00,meteobridge,2013-07-22 21:03:00,
2013-07-22 15:08:00,91.8,47.5,29.61,WSW,255,0.9,2.9,22,0.00,,,0.00,meteobridge,2013-07-22 21:08:00,
2013-07-22 15:13:00,91.9,48.9,29.61,WSW,237,4.9,6.0,23,0.00,,,0.00,meteobridge,2013-07-22 21:13:00,
2013-07-22 15:18:00,92.7,46.9,29.60,WSW,249,2.9,6.0,21,0.00,,,0.00,meteobridge,2013-07-22 21:18:00,
2013-07-22 15:23:00,93.0,47.3,29.60,NNW,338,2.9,6.0,21,0.00,,,0.00,meteobridge,2013-07-22 21:23:00,
2013-07-22 15:28:00,93.6,46.4,29.60,East,98,0.0,2.0,20,0.00,,,0.00,meteobridge,2013-07-22 21:28:00,
2013-07-22 15:33:00,93.0,44.6,29.60,SSW,195,0.9,4.0,19,0.00,,,0.00,meteobridge,2013-07-22 21:33:00,
2013-07-22 15:38:00,93.0,44.6,29.60,NW,315,0.0,4.0,19,0.00,,,0.00,meteobridge,2013-07-22 21:38:00,
2013-07-22 15:43:00,93.0,47.3,29.59,SE,140,2.9,6.0,21,0.00,,,0.00,meteobridge,2013-07-22 21:43:00,
2013-07-22 15:48:00,92.7,46.9,29.60,WSW,252,0.9,2.9,21,0.00,,,0.00,meteobridge,2013-07-22 21:48:00,
2013-07-22 15:53:00,93.9,48.0,29.60,SSW,208,2.9,8.1,21,0.00,,,0.00,meteobridge,2013-07-22 21:53:00,
2013-07-22 15:59:00,92.5,45.5,29.59,SSW,201,4.9,6.0,20,0.00,,,0.00,meteobridge,2013-07-22 21:59:00,
2013-07-22 16:04:00,92.1,46.6,29.59,NNW,331,0.0,2.0,21,0.00,,,0.00,meteobridge,2013-07-22 22:04:00,
2013-07-22 16:09:00,93.2,46.2,29.59,NNW,333,2.9,2.9,20,0.00,,,0.00,meteobridge,2013-07-22 22:09:00,
2013-07-22 16:14:00,93.4,46.4,29.59,NNW,347,2.9,4.0,20,0.00,,,0.00,meteobridge,2013-07-22 22:14:00,
2013-07-22 16:19:00,93.0,47.3,29.59,NNW,327,0.9,2.9,21,0.00,,,0.00,meteobridge,2013-07-22 22:19:00,
2013-07-22 16:24:00,92.7,45.7,29.59,West,262,0.0,0.9,20,0.00,,,0.00,meteobridge,2013-07-22 22:24:00,
2013-07-22 16:29:00,93.0,44.6,29.59,SW,236,2.9,4.0,19,0.00,,,0.00,meteobridge,2013-07-22 22:29:00,
2013-07-22 16:34:00,92.5,46.9,29.59,SW,231,0.9,2.9,21,0.00,,,0.00,meteobridge,2013-07-22 22:34:00,
2013-07-22 16:39:00,92.8,45.9,29.59,WSW,250,2.9,4.0,20,0.00,,,0.00,meteobridge,2013-07-22 22:39:00,
2013-07-22 16:44:00,92.5,45.5,29.59,ENE,78,0.0,2.9,20,0.00,,,0.00,meteobridge,2013-07-22 22:44:00,
2013-07-22 16:49:00,92.5,45.5,29.58,ESE,108,0.9,2.0,20,0.00,,,0.00,meteobridge,2013-07-22 22:49:00,
2013-07-22 16:54:00,92.1,45.3,29.59,ESE,103,0.9,2.0,20,0.00,,,0.00,meteobridge,2013-07-22 22:54:00,
2013-07-22 16:59:00,92.8,45.9,29.58,SE,140,2.9,2.9,20,0.00,,,0.00,meteobridge,2013-07-22 22:59:00,
2013-07-22 17:04:00,93.0,44.6,29.58,SSW,195,4.0,6.0,19,0.00,,,0.00,meteobridge,2013-07-22 23:04:00,
2013-07-22 17:09:00,93.4,45.0,29.58,West,265,2.9,4.9,19,0.00,,,0.00,meteobridge,2013-07-22 23:09:00,
2013-07-22 17:15:00,93.0,44.6,29.58,WSW,237,4.0,4.9,19,0.00,,,0.00,meteobridge,2013-07-22 23:15:00,
2013-07-22 17:20:00,93.9,45.3,29.57,SW,227,0.9,4.0,19,0.00,,,0.00,meteobridge,2013-07-22 23:20:00,
2013-07-22 17:25:00,94.5,44.4,29.57,SW,235,2.0,2.9,18,0.00,,,0.00,meteobridge,2013-07-22 23:25:00,
2013-07-22 17:30:00,94.6,46.0,29.57,West,263,2.9,2.9,19,0.00,,,0.00,meteobridge,2013-07-22 23:30:00,
2013-07-22 17:35:00,92.8,43.2,29.57,SSW,192,0.0,4.9,18,0.00,,,0.00,meteobridge,2013-07-22 23:35:00,
2013-07-22 17:40:00,92.3,44.1,29.57,SE,146,0.9,2.0,19,0.00,,,0.00,meteobridge,2013-07-22 23:40:00,
2013-07-22 17:45:00,91.6,46.0,29.57,SW,218,2.0,4.0,21,0.00,,,0.00,meteobridge,2013-07-22 23:45:00,
2013-07-22 17:50:00,91.8,45.0,29.57,South,184,2.0,4.0,20,0.00,,,0.00,meteobridge,2013-07-22 23:50:00,
2013-07-22 17:55:00,91.4,44.8,29.57,SSE,159,2.0,4.9,20,0.00,,,0.00,meteobridge,2013-07-22 23:55:00,
2013-07-22 18:00:00,91.8,45.0,29.57,South,169,0.9,2.9,20,0.00,,,0.00,meteobridge,2013-07-23 00:00:00,
2013-07-22 18:05:00,91.8,43.7,29.57,South,169,0.0,0.0,19,0.00,,,0.00,meteobridge,2013-07-23 00:05:00,
2013-07-22 18:10:00,91.9,46.4,29.57,WSW,254,0.9,0.9,21,0.00,,,0.00,meteobridge,2013-07-23 00:10:00,
2013-07-22 18:15:00,91.6,44.8,29.57,SW,229,2.0,2.9,20,0.00,,,0.00,meteobridge,2013-07-23 00:15:00,
2013-07-22 18:20:00,91.2,44.6,29.57,SSW,204,2.0,2.9,20,0.00,,,0.00,meteobridge,2013-07-23 00:20:00,
2013-07-22 18:25:00,90.9,43.0,29.57,WSW,238,0.9,4.9,19,0.00,,,0.00,meteobridge,2013-07-23 00:25:00,
2013-07-22 18:30:00,90.7,44.1,29.57,SW,219,2.0,4.0,20,0.00,,,0.00,meteobridge,2013-07-23 00:30:00,
2013-07-22 18:35:00,90.3,43.9,29.57,South,191,0.9,2.0,20,0.00,,,0.00,meteobridge,2013-07-23 00:35:00,
2013-07-22 18:40:00,90.0,43.5,29.57,WSW,239,0.9,2.9,20,0.00,,,0.00,meteobridge,2013-07-23 00:40:00,
2013-07-22 18:45:00,89.8,44.6,29.57,SW,225,0.9,2.0,21,0.00,,,0.00,meteobridge,2013-07-23 00:45:00,
2013-07-22 18:50:00,89.4,44.4,29.56,SW,226,0.0,2.0,21,0.00,,,0.00,meteobridge,2013-07-23 00:50:00,
2013-07-22 18:56:00,89.4,45.5,29.56,SW,231,0.0,0.0,22,0.00,,,0.00,meteobridge,2013-07-23 00:56:00,
2013-07-22 19:01:00,89.4,45.5,29.56,SW,220,0.0,0.0,22,0.00,,,0.00,meteobridge,2013-07-23 01:01:00,
2013-07-22 19:06:00,89.4,45.5,29.56,SW,214,0.0,0.9,22,0.00,,,0.00,meteobridge,2013-07-23 01:06:00,
2013-07-22 19:08:00,89.6,44.4,29.56,SSE,165,2.0,2.9,21,0.00,,,0.00,meteobridge,2013-07-23 01:08:00,
2013-07-22 19:13:00,90.0,44.8,29.57,SSW,195,0.9,2.0,21,0.00,,,0.00,meteobridge,2013-07-23 01:13:00,
2013-07-22 19:18:00,90.0,44.8,29.57,SSW,207,2.0,4.9,21,0.00,,,0.00,meteobridge,2013-07-23 01:18:00,
2013-07-22 19:23:00,90.0,43.5,29.57,South,181,0.0,2.9,20,0.00,,,0.00,meteobridge,2013-07-23 01:23:00,
2013-07-22 19:28:00,90.0,44.8,29.57,SW,222,2.0,4.0,21,0.00,,,0.00,meteobridge,2013-07-23 01:28:00,
2013-07-22 19:33:00,90.0,44.8,29.57,South,170,2.0,2.9,21,0.00,,,0.00,meteobridge,2013-07-23 01:33:00,
2013-07-22 19:38:00,90.0,44.8,29.57,SSE,157,0.9,2.0,21,0.00,,,0.00,meteobridge,2013-07-23 01:38:00,
2013-07-22 19:44:00,89.8,44.6,29.57,South,180,0.0,0.9,21,0.00,,,0.00,meteobridge,2013-07-23 01:44:00,
2013-07-22 19:49:00,89.4,44.4,29.57,SE,144,0.9,2.9,21,0.00,,,0.00,meteobridge,2013-07-23 01:49:00,
2013-07-22 19:54:00,89.2,44.2,29.57,South,177,0.0,4.0,21,0.00,,,0.00,meteobridge,2013-07-23 01:54:00,
2013-07-22 19:59:00,89.1,45.3,29.57,SE,132,2.0,2.9,22,0.00,,,0.00,meteobridge,2013-07-23 01:59:00,
2013-07-22 20:04:00,89.1,47.7,29.57,South,186,4.0,11.0,24,0.00,,,0.00,meteobridge,2013-07-23 02:04:00,
2013-07-22 20:09:00,88.7,48.4,29.57,SE,146,6.0,13.0,25,0.00,,,0.00,meteobridge,2013-07-23 02:09:00,
2013-07-22 20:14:00,88.2,48.9,29.57,South,184,6.0,6.0,26,0.00,,,0.00,meteobridge,2013-07-23 02:14:00,
2013-07-22 20:19:00,87.8,48.6,29.58,SE,134,2.9,4.9,26,0.00,,,0.00,meteobridge,2013-07-23 02:19:00,
2013-07-22 20:24:00,87.4,47.3,29.58,SE,145,6.0,6.0,25,0.00,,,0.00,meteobridge,2013-07-23 02:24:00,
2013-07-22 20:29:00,87.3,47.1,29.58,SE,135,2.0,6.9,25,0.00,,,0.00,meteobridge,2013-07-23 02:29:00,
2013-07-22 20:34:00,87.1,48.0,29.59,ESE,122,2.9,2.9,26,0.00,,,0.00,meteobridge,2013-07-23 02:34:00,
2013-07-22 20:39:00,87.1,48.0,29.60,SE,128,8.1,11.0,26,0.00,,,0.00,meteobridge,2013-07-23 02:39:00,
2013-07-22 20:44:00,86.5,47.7,29.60,SSE,149,2.9,10.1,26,0.00,,,0.00,meteobridge,2013-07-23 02:44:00,
2013-07-22 20:49:00,86.2,47.3,29.60,ESE,117,4.0,11.0,26,0.00,,,0.00,meteobridge,2013-07-23 02:49:00,
2013-07-22 20:54:00,85.8,48.0,29.61,SE,143,6.0,8.1,27,0.00,,,0.00,meteobridge,2013-07-23 02:54:00,
2013-07-22 20:59:00,85.5,47.7,29.61,ESE,119,4.9,8.9,27,0.00,,,0.00,meteobridge,2013-07-23 02:59:00,
2013-07-22 21:04:00,85.3,47.5,29.61,SSE,155,4.0,4.9,27,0.00,,,0.00,meteobridge,2013-07-23 03:04:00,
2013-07-22 21:09:00,85.5,47.7,29.61,SE,142,2.9,6.9,27,0.00,,,0.00,meteobridge,2013-07-23 03:09:00,
2013-07-22 21:14:00,85.5,47.7,29.62,SSE,156,8.1,8.1,27,0.00,,,0.00,meteobridge,2013-07-23 03:14:00,
2013-07-22 21:19:00,85.5,46.6,29.62,SSE,156,4.0,8.9,26,0.00,,,0.00,meteobridge,2013-07-23 03:19:00,
2013-07-22 21:24:00,85.3,46.6,29.62,SE,140,6.0,6.9,26,0.00,,,0.00,meteobridge,2013-07-23 03:24:00,
2013-07-22 21:29:00,85.1,46.4,29.62,SSE,163,2.0,4.9,26,0.00,,,0.00,meteobridge,2013-07-23 03:29:00,
2013-07-22 21:34:00,84.9,46.2,29.62,SSE,148,0.0,2.0,26,0.00,,,0.00,meteobridge,2013-07-23 03:34:00,
2013-07-22 21:39:00,84.7,46.0,29.62,SSE,148,0.0,0.9,26,0.00,,,0.00,meteobridge,2013-07-23 03:39:00,
2013-07-22 21:44:00,84.7,46.0,29.62,SSE,156,0.0,2.0,26,0.00,,,0.00,meteobridge,2013-07-23 03:44:00,
2013-07-22 21:50:00,84.6,46.9,29.62,SSE,157,0.0,0.9,27,0.00,,,0.00,meteobridge,2013-07-23 03:50:00,
2013-07-22 21:55:00,84.0,47.5,29.62,West,269,0.9,0.9,28,0.00,,,0.00,meteobridge,2013-07-23 03:55:00,
2013-07-22 22:00:00,83.8,47.3,29.62,West,263,0.0,0.9,28,0.00,,,0.00,meteobridge,2013-07-23 04:00:00,
2013-07-22 22:01:00,83.8,47.3,29.62,NW,306,2.0,2.0,28,0.00,,,0.00,meteobridge,2013-07-23 04:01:00,
2013-07-22 22:02:00,83.8,47.3,29.62,NW,315,0.9,2.0,28,0.00,,,0.00,meteobridge,2013-07-23 04:02:00,
2013-07-22 22:07:00,84.0,46.4,29.62,West,272,0.0,0.9,27,0.00,,,0.00,meteobridge,2013-07-23 04:07:00,
2013-07-22 22:12:00,83.8,47.3,29.62,West,272,0.0,0.9,28,0.00,,,0.00,meteobridge,2013-07-23 04:12:00,
2013-07-22 22:17:00,83.5,47.8,29.63,SSW,208,0.0,4.0,29,0.00,,,0.00,meteobridge,2013-07-23 04:17:00,
2013-07-22 22:22:00,83.5,48.7,29.63,South,188,2.0,4.9,30,0.00,,,0.00,meteobridge,2013-07-23 04:22:00,
2013-07-22 22:27:00,83.1,49.3,29.64,South,170,0.9,2.9,31,0.00,,,0.00,meteobridge,2013-07-23 04:27:00,
2013-07-22 22:32:00,82.8,49.8,29.64,South,186,0.9,4.9,32,0.00,,,0.00,meteobridge,2013-07-23 04:32:00,
2013-07-22 22:37:00,82.4,49.6,29.64,SSW,200,0.0,2.9,32,0.00,,,0.00,meteobridge,2013-07-23 04:37:00,
2013-07-22 22:42:00,82.0,50.2,29.65,SE,131,0.0,2.0,33,0.00,,,0.00,meteobridge,2013-07-23 04:42:00,
2013-07-22 22:47:00,81.9,50.0,29.65,SE,130,0.0,0.0,33,0.00,,,0.00,meteobridge,2013-07-23 04:47:00,
2013-07-22 22:53:00,81.7,50.5,29.65,SE,131,0.9,2.0,34,0.00,,,0.00,meteobridge,2013-07-23 04:53:00,
2013-07-22 22:58:00,81.3,51.1,29.65,SE,131,2.0,2.9,35,0.00,,,0.00,meteobridge,2013-07-23 04:58:00,
2013-07-22 23:03:00,81.0,50.7,29.65,SE,146,0.0,2.0,35,0.00,,,0.00,meteobridge,2013-07-23 05:03:00,
2013-07-22 23:08:00,81.0,50.7,29.65,South,171,4.0,4.0,35,0.00,,,0.00,meteobridge,2013-07-23 05:08:00,
2013-07-22 23:13:00,81.0,51.4,29.65,SSE,154,2.9,4.9,36,0.00,,,0.00,meteobridge,2013-07-23 05:13:00,
2013-07-22 23:18:00,80.8,51.3,29.65,SSE,149,2.9,2.9,36,0.00,,,0.00,meteobridge,2013-07-23 05:18:00,
2013-07-22 23:23:00,80.6,51.3,29.64,SE,136,0.0,2.9,36,0.00,,,0.00,meteobridge,2013-07-23 05:23:00,
2013-07-22 23:28:00,80.4,51.8,29.64,SE,126,0.9,4.0,37,0.00,,,0.00,meteobridge,2013-07-23 05:28:00,
2013-07-22 23:33:00,80.4,51.8,29.64,SSE,162,2.0,2.9,37,0.00,,,0.00,meteobridge,2013-07-23 05:33:00,
2013-07-22 23:38:00,80.4,51.8,29.64,SE,135,0.9,4.9,37,0.00,,,0.00,meteobridge,2013-07-23 05:38:00,
2013-07-22 23:43:00,80.2,52.3,29.64,SE,141,2.9,2.9,38,0.00,,,0.00,meteobridge,2013-07-23 05:43:00,
2013-07-22 23:48:00,80.2,51.6,29.64,SE,134,4.0,4.9,37,0.00,,,0.00,meteobridge,2013-07-23 05:48:00,
2013-07-22 23:53:00,80.1,52.2,29.64,SE,138,2.0,2.0,38,0.00,,,0.00,meteobridge,2013-07-23 05:53:00,
2013-07-22 23:58:00,80.1,52.2,29.64,SE,144,2.9,4.9,38,0.00,,,0.00,meteobridge,2013-07-23 05:58:00,